North Simcoe XC

October 10, 2017


Results By Speed River Timing. Omissions or Corrections? speedrivertiming@gmail.com Speed River Timing

Final Team Results - Girls

Grade 4 Girls

Team - Bayview PS

Finish Position - 1

Team Score (places): 30

Team Score (times): 32:05.6

Ave Time:8:01.4

Pos Bib No Name   O'All Place Cum Place Time Cum Time Time Back
1 228 Sydney Neal   3 3 7:35.9 7:35.9 0:11.0
2 225 Sadie Seca   5 8 7:51.0 15:27.0 0:26.2
3 226 Sonia Mehta   10 18 8:18.0 23:45.0 0:53.1
4 223 Jocelynn Hewson   12 30 8:20.5 32:05.6 0:55.6
5 220 Gracie Allinson   (19) (49) 8:39.1 40:44.8 1:14.3
6 229 Miah Morton   (36) (85) 9:33.5 50:18.3 2:08.6
7 224 Sophia Shortt-Bailey   (51) (136) 10:00.7 1:00:19.0 2:35.8
8 230 Kayla Yu   (56) (192) 10:22.4 1:10:41.5 2:57.6
9 222 Greco Amelia   (57) (249) 10:22.6 1:21:04.1 2:57.7
10 227 Ava Cole   (83) (332) 11:51.2 1:32:55.4 4:26.4
11 219 Excel Agbagbue   (90) (422) 12:28.6 1:45:24.0 5:03.7
12 221 Clague Hunter   (103) (525) 13:21.3 1:58:45.4 5:56.4

Team - Mundy's Bay

Finish Position - 2

Team Score (places): 38

Team Score (times): 32:23.5

Ave Time:8:05.9

Pos Bib No Name   O'All Place Cum Place Time Cum Time Time Back
1 436 Sydney Larmand   1 1 7:24.8 7:24.8 0:00.0
2 434 Adair Wieclawek   6 7 7:55.6 15:20.5 0:30.7
3 433 Allie Homick   7 14 8:01.5 23:22.0 0:36.6
4 437 Grace Cherry   24 38 9:01.5 32:23.5 1:36.6
5 442 Jolene Morgan   (42) (80) 9:41.8 42:05.4 2:17.0
6 438 Raine Oldfield-Travis   (44) (124) 9:44.4 51:49.9 2:19.6
7 429 Charlotte Coutts   (45) (169) 9:46.0 1:01:35.9 2:21.1
8 435 Olivia Mason   (46) (215) 9:47.1 1:11:23.1 2:22.2
9 430 Sahara Ealey   (48) (263) 9:50.9 1:21:14.1 2:26.0
10 422 Bailey Dionne   (49) (312) 9:51.6 1:31:05.8 2:26.8
11 439 Shyla Malone   (52) (364) 10:08.5 1:41:14.3 2:43.6
12 421 Ella Lewis   (62) (426) 10:38.0 1:51:52.4 3:13.1
13 427 Kara Stratton   More Than 12   10:46.0 2:02:38.5 3:21.2
14 426 Cadence Charlebois   More Than 12   10:54.4 2:13:32.9 3:29.5
15 432 Anna Totman   More Than 12   11:24.0 2:24:56.9 3:59.1
16 425 Kayleigh Jones   More Than 12   11:29.2 2:36:26.2 4:04.3
17 420 Ruby Bondar   More Than 12   11:34.6 2:48:00.9 4:09.8
18 419 Brooklyn Shikat   More Than 12   12:06.1 3:00:07.0 4:41.2
19 428 Raina Perkin   More Than 12   12:52.0 3:12:59.0 5:27.1
20 423 Cassandra Lewis   More Than 12   13:07.8 3:26:06.8 5:42.9
21 431 Clara Getty   More Than 12   13:22.9 3:39:29.8 5:58.0

Team - Huronia Centennial

Finish Position - 3

Team Score (places): 53

Team Score (times): 33:35.1

Ave Time:8:23.7

Pos Bib No Name   O'All Place Cum Place Time Cum Time Time Back
1 362 Sophia Josefik   9 9 8:12.1 8:12.1 0:47.2
2 360 Samantha Parnell   11 20 8:18.9 16:31.1 0:54.0
3 363 Brigid Davidson   15 35 8:28.6 24:59.8 1:03.8
4 358 *sophie McKittrick   18 53 8:35.3 33:35.1 1:10.4
5 365 Katie Nidenz   (25) (78) 9:04.3 42:39.5 1:39.4
6 369 Ashley Wood   (61) (139) 10:34.6 53:14.1 3:09.7
7 366 Kirby Delgado   (63) (202) 10:42.0 1:03:56.1 3:17.1
8 359 Katelyn Hartman   (66) (268) 10:43.9 1:14:40.0 3:19.0
9 368 Jade Alldred   (69) (337) 10:51.3 1:25:31.3 3:26.4
10 364 Makayla Crake   (70) (407) 10:52.1 1:36:23.5 3:27.2
11 361 Allie Kidd   (98) (505) 13:09.8 1:49:33.3 5:44.9

Team - Saint-Louis

Finish Position - 4

Team Score (places): 103

Team Score (times): 36:05.7

Ave Time:9:01.4

Pos Bib No Name   O'All Place Cum Place Time Cum Time Time Back
1 670 Ayla Perrault   22 22 8:45.1 8:45.1 1:20.2
2 663 Erin Belcourt   26 48 9:05.9 17:51.0 1:41.0
3 669 Sarah Maurice-Young   27 75 9:06.5 26:57.5 1:41.6
4 668 Madeleine Marchand   28 103 9:08.2 36:05.7 1:43.3
5 664 Alexa Buttineau   (37) (140) 9:36.5 45:42.3 2:11.7
6 665 Cameron Ealey   (41) (181) 9:41.8 55:24.1 2:16.9
7 671 Sophie Ward   (86) (267) 12:07.6 1:07:31.8 4:42.8
8 666 Kya Lafrenière   (87) (354) 12:09.4 1:19:41.3 4:44.5
9 667 Arianna Lalonde   (88) (442) 12:18.3 1:31:59.6 4:53.4
10 662 Katherine Adragna   (91) (533) 12:28.8 1:44:28.4 5:03.9

Team - Monsignor Castex

Finish Position - 5

Team Score (places): 127

Team Score (times): 36:47.6

Ave Time:9:11.9

Pos Bib No Name   O'All Place Cum Place Time Cum Time Time Back
1 145 Zoe Everson   2 2 7:34.4 7:34.4 0:09.6
2 143 Anna Gignac   8 10 8:04.2 15:38.7 0:39.3
3 146 Lydia Ladouceur   39 49 9:38.4 25:17.1 2:13.5
4 148 Jaymie Champlain   78 127 11:30.4 36:47.6 4:05.6
5 144 Violet Rumney   (81) (208) 11:38.3 48:25.9 4:13.4
6 149 Mady Denton   (84) (292) 11:53.5 1:00:19.4 4:28.6
7 147 Jenna Ali   (85) (377) 11:54.0 1:12:13.5 4:29.1

Team - Huron Park

Finish Position - 6

Team Score (places): 175

Team Score (times): 39:18.9

Ave Time:9:49.7

Pos Bib No Name   O'All Place Cum Place Time Cum Time Time Back
1 288 Baylee Holsgrove   30 30 9:15.2 9:15.2 1:50.3
2 292 Seanna Hiller   38 68 9:37.1 18:52.3 2:12.2
3 295 Emma Trottier   43 111 9:44.4 28:36.8 2:19.6
4 290 Mackenzie Corscadden   64 175 10:42.1 39:18.9 3:17.2
5 289 London Rademaker   (65) (240) 10:42.9 50:01.9 3:18.1
6 291 Laylah Deschamps   (72) (312) 11:06.0 1:01:08.0 3:41.2
7 287 Macey Smith   (73) (385) 11:06.4 1:12:14.4 3:41.5
8 294 Gabby Marsde   (74) (459) 11:09.5 1:23:24.0 3:44.7
9 293 Shelby Pulver   (76) (535) 11:15.7 1:34:39.8 3:50.9
10 296 Mckayla Laramey   (101) (636) 13:17.4 1:47:57.3 5:52.5

Team - Hillsdale

Finish Position - 7

Team Score (places): 177

Team Score (times): 39:09.5

Ave Time:9:47.3

Pos Bib No Name   O'All Place Cum Place Time Cum Time Time Back
1 717 Mady Wemp   14 14 8:23.5 8:23.5 0:58.6
2 719 Zoey Dudka   35 49 9:32.1 17:55.7 2:07.3
3 715 Lauren McTavish   60 109 10:25.9 28:21.7 3:01.0
4 714 Brooklyn Hansen   68 177 10:47.8 39:09.5 3:22.9
5 716 Madalyn Anderson   (89) (266) 12:28.1 51:37.7 5:03.2
6 718 Molly Marcheson   (92) (358) 12:33.9 1:04:11.6 5:09.0

Team - Burkevale

Finish Position - 8

Team Score (places): 185

Team Score (times): 39:45.5

Ave Time:9:56.3

Pos Bib No Name   O'All Place Cum Place Time Cum Time Time Back
1 2 Ally Ruston   20 20 8:42.2 8:42.2 1:17.3
2 3 Paige Dusome   32 52 9:18.4 18:00.7 1:53.5
3 4 Laura Ritchie   54 106 10:12.6 28:13.4 2:47.7
4 1 Scarlett Laurin   79 185 11:32.1 39:45.5 4:07.2

Team - Our Lady of Lourdes

Finish Position - 9

Team Score (places): 197

Team Score (times): 40:20.3

Ave Time:10:05.0

Pos Bib No Name   O'All Place Cum Place Time Cum Time Time Back
1 556 **allison Birch   31 31 9:15.8 9:15.8 1:50.9
2 558 Gwen Hueson   33 64 9:21.6 18:37.4 1:56.8
3 559 Layla Campitelli   53 117 10:09.1 28:46.6 2:44.2
4 562 Mackenzie Noel   80 197 11:33.6 40:20.3 4:08.8
5 560 Nevaeh Martin   (93) (290) 12:35.5 52:55.8 5:10.6
6 561 Mary Drinkle   (96) (386) 13:00.2 1:05:56.0 5:35.3
7 557 Jocelyn Charbonneau   (97) (483) 13:04.8 1:19:00.8 5:39.9
8 605 Madlyn Branton   (102) (585) 13:18.5 1:32:19.4 5:53.6

Team - Canadian Martyrs

Finish Position - 10

Team Score (places): 205

Team Score (times): 40:56.1

Ave Time:10:14.0

Pos Bib No Name   O'All Place Cum Place Time Cum Time Time Back
1 618 Olivia Demunnik   4 4 7:38.3 7:38.3 0:13.4
2 616 Aubrey Buxton   47 51 9:49.2 17:27.5 2:24.3
3 615 Cheyenne Gordon   55 106 10:17.7 27:45.2 2:52.8
4 614 Faith Ladouceur   99 205 13:10.9 40:56.1 5:46.0
5 617 Shaelyn Kucera   (100) (305) 13:11.9 54:08.0 5:47.0

Team - St. Ann's

Finish Position - 11

Team Score (places): 210

Team Score (times): 40:43.6

Ave Time:10:10.9

Pos Bib No Name   O'All Place Cum Place Time Cum Time Time Back
1 118 Ayslin Duquette   16 16 8:30.9 8:30.9 1:06.0
2 117 Allie Gerow   58 74 10:23.7 18:54.6 2:58.8
3 119 Keely Aucterlonie   59 133 10:24.1 29:18.7 2:59.3
4 120 Sadie Ball   77 210 11:24.8 40:43.6 3:59.9

Final Team Results - Girls

Grade 5 Girls

Team - Mundy's Bay

Finish Position - 1

Team Score (places): 27

Team Score (times): 30:17.2

Ave Time:7:34.3

Pos Bib No Name   O'All Place Cum Place Time Cum Time Time Back
1 470 Rachel King   2 2 7:16.9 7:16.9 0:09.0
2 461 Terry Wang   6 8 7:37.3 14:54.3 0:29.4
3 473 Isabella Gendron   7 15 7:38.9 22:33.2 0:31.0
4 460 Tatum Scanlan   12 27 7:43.9 30:17.2 0:35.9
5 462 Marley Wonta   (17) (44) 7:56.4 38:13.6 0:48.5
6 464 Robyn Donaldson   (21) (65) 8:26.6 46:40.2 1:18.6
7 466 Olivia Schepers   (30) (95) 8:42.8 55:23.1 1:34.9
8 467 Cameron Baumann   (41) (136) 8:58.7 1:04:21.8 1:50.7
9 472 Eva Kostiw   (45) (181) 9:05.2 1:13:27.1 1:57.3
10 468 Addison Bondar   (49) (230) 9:19.4 1:22:46.5 2:11.4
11 471 Maya Jenkinson   (50) (280) 9:20.8 1:32:07.3 2:12.8
12 463 Lilah Glidden   (83) (363) 12:10.0 1:44:17.4 5:02.0
13 469 Aurora McGaughey   More Than 12   13:19.1 1:57:36.5 6:11.1

Team - Tay Shores

Finish Position - 2

Team Score (places): 66

Team Score (times): 31:58.3

Ave Time:7:59.5

Pos Bib No Name   O'All Place Cum Place Time Cum Time Time Back
1 801 Makayla Duxbury   4 4 7:34.0 7:34.0 0:26.0
2 795 Sophia Szafranski   11 15 7:42.8 15:16.8 0:34.8
3 799 River Thomas   15 30 7:52.9 23:09.7 0:45.0
4 797 Jaylen Moss   36 66 8:48.5 31:58.3 1:40.5
5 796 Claire Szafranski   (55) (121) 9:35.5 41:33.9 2:27.6
6 794 Gabby Patterson   (57) (178) 9:45.9 51:19.8 2:38.0
7 802 Bailey Norton   (60) (238) 10:03.0 1:01:22.9 2:55.1
8 800 Emma Draper   (86) (324) 14:08.6 1:15:31.6 7:00.7

Team - Saint Joseph

Finish Position - 3

Team Score (places): 67

Team Score (times): 32:19.4

Ave Time:8:04.8

Pos Bib No Name   O'All Place Cum Place Time Cum Time Time Back
1 199 Josée Desroches   3 3 7:27.8 7:27.8 0:19.8
2 200 Emily Wilson   13 16 7:45.7 15:13.5 0:37.7
3 201 Makenna Weatherall   25 41 8:31.7 23:45.2 1:23.8
4 202 Leah Asselin   26 67 8:34.1 32:19.4 1:26.1
5 203 Gabrielle Cloutier   (37) (104) 8:50.4 41:09.9 1:42.5
6 205 Jocelyn Cook   (52) (156) 9:29.6 50:39.5 2:21.6
7 204 Bella Ferguson   (58) (214) 9:49.8 1:00:29.3 2:41.9

Team - St Antoine Daniel

Finish Position - 4

Team Score (places): 74

Team Score (times): 32:29.3

Ave Time:8:07.3

Pos Bib No Name   O'All Place Cum Place Time Cum Time Time Back
1 83 Kaylee Barron   1 1 7:07.9 7:07.9 0:00.0
2 84 Gracie Cadeau   18 19 7:59.2 15:07.1 0:51.2
3 85 Nala Beans   27 46 8:40.3 23:47.5 1:32.4
4 77 Catherine Varley   28 74 8:41.8 32:29.3 1:33.8
5 80 Avery Diver   (73) (147) 11:14.8 43:44.1 4:06.8
6 82 Avery Moreau   (76) (223) 11:40.1 55:24.3 4:32.2
7 78 Breille Morrow   (78) (301) 11:45.0 1:07:09.3 4:37.0
8 81 Mia Wayne   (79) (380) 11:46.8 1:18:56.1 4:38.8
9 79 Hannah Watson   (80) (460) 11:47.9 1:30:44.1 4:39.9

Team - Huronia Centennial

Finish Position - 5

Team Score (places): 88

Team Score (times): 33:31.9

Ave Time:8:22.9

Pos Bib No Name   O'All Place Cum Place Time Cum Time Time Back
1 376 *bryce McLaren   5 5 7:35.5 7:35.5 0:27.5
2 377 Aubrey McLaren   22 27 8:29.9 16:05.5 1:22.0
3 378 Quinn MacKenzie   29 56 8:42.5 24:48.0 1:34.6
4 379 Leighton Therrien   32 88 8:43.8 33:31.9 1:35.9
5 380 Sarah Dion   (35) (123) 8:47.5 42:19.5 1:39.6

Team - Hillsdale

Finish Position - 6

Team Score (places): 113

Team Score (times): 33:43.9

Ave Time:8:25.9

Pos Bib No Name   O'All Place Cum Place Time Cum Time Time Back
1 729 Elizabeth Kelly   9 9 7:41.9 7:41.9 0:34.0
2 735 Nadine Marchildon   16 25 7:53.3 15:35.2 0:45.3
3 732 Hayley Dunn   42 67 9:01.9 24:37.2 1:53.9
4 730 Charlotte Sanderson   46 113 9:06.7 33:43.9 1:58.7
5 733 Gabriella Pretty   (53) (166) 9:30.0 43:13.9 2:22.0
6 736 Karalyn Hill   (54) (220) 9:32.3 52:46.3 2:24.4
7 731 Layla Torrie   (67) (287) 11:00.2 1:03:46.5 3:52.2
8 728 Peyton Lee   (71) (358) 11:08.0 1:14:54.6 4:00.1
9 734 Madison Morrison   (74) (432) 11:26.1 1:26:20.7 4:18.1
10 737 Meadow Thomas   (77) (509) 11:43.7 1:38:04.4 4:35.7

Team - Bayview PS

Finish Position - 7

Team Score (places): 131

Team Score (times): 34:40.5

Ave Time:8:40.1

Pos Bib No Name   O'All Place Cum Place Time Cum Time Time Back
1 241 Tori Atkinson   19 19 8:07.7 8:07.7 0:59.7
2 247 Ava Meridis   33 52 8:46.0 16:53.7 1:38.1
3 249 Isabel Thor   39 91 8:52.5 25:46.2 1:44.5
4 243 Calyssa Bartosiak   40 131 8:54.2 34:40.5 1:46.3
5 248 Madison Redgrift   (44) (175) 9:05.0 43:45.5 1:57.0
6 242 Orionah Barry   (66) (241) 10:56.0 54:41.5 3:48.0
7 244 Madison Boyd-Nelson   (69) (310) 11:05.5 1:05:47.1 3:57.5
8 250 Brooke Ward   (70) (380) 11:06.5 1:16:53.6 3:58.6
9 245 Olivia Fisher   (75) (455) 11:30.4 1:28:24.0 4:22.4

Team - Monsignor Castex

Finish Position - 8

Team Score (places): 200

Team Score (times): 39:13.8

Ave Time:9:48.4

Pos Bib No Name   O'All Place Cum Place Time Cum Time Time Back
1 160 Lexi Hrizo   23 23 8:30.5 8:30.5 1:22.6
2 159 Ava Todd   48 71 9:11.4 17:42.0 2:03.4
3 161 Maire Ross   64 135 10:45.5 28:27.5 3:37.5
4 162 Lilly Moreau   65 200 10:46.3 39:13.8 3:38.4

Team - Saint-Louis

Finish Position - 9

Team Score (places): 212

Team Score (times): 38:31.6

Ave Time:9:37.9

Pos Bib No Name   O'All Place Cum Place Time Cum Time Time Back
1 680 Naomi St.amant   43 43 9:03.9 9:03.9 1:56.0
2 676 Ella Arthurs   51 94 9:21.0 18:25.0 2:13.0
3 679 Olivia Reynolds   56 150 9:42.7 28:07.7 2:34.7
4 677 Saphyr Hamann   62 212 10:23.9 38:31.6 3:15.9
5 678 Sadie Maurice-Young   (68) (280) 11:03.3 49:35.0 3:55.4

Final Team Results - Girls

Grade 6 Girls

Team - Huronia Centennial

Finish Position - 1

Team Score (places): 57

Team Score (times): 40:46.8

Ave Time:10:11.7

Pos Bib No Name   O'All Place Cum Place Time Cum Time Time Back
1 387 *teaghan Bartlett   1 1 8:48.3 8:48.3 0:00.0
2 388 Ella Solly   8 9 9:41.4 18:29.8 0:53.1
3 391 Kate McKittrick   11 20 9:57.8 28:27.6 1:09.4
4 390 Myah Veenstra   37 57 12:19.1 40:46.8 3:30.7
5 389 Raegan Tabbert   (38) (95) 12:20.1 53:06.9 3:31.7

Team - Bayview PS

Finish Position - 2

Team Score (places): 57

Team Score (times): 41:06.4

Ave Time:10:16.6

Pos Bib No Name   O'All Place Cum Place Time Cum Time Time Back
1 257 Brooke Browne   5 5 9:38.8 9:38.8 0:50.5
2 255 Kate Beausoleil   6 11 9:39.2 19:18.1 0:50.8
3 260 Morgan Weicker   14 25 10:19.2 29:37.3 1:30.9
4 259 Hailey French   32 57 11:29.0 41:06.4 2:40.6
5 258 Aimee Edmonds   (56) (113) 15:12.4 56:18.8 6:24.0
6 256 Brennan Bielefeld   (57) (170) 15:12.6 1:11:31.4 6:24.2

Team - Mundy's Bay

Finish Position - 3

Team Score (places): 59

Team Score (times): 41:19.0

Ave Time:10:19.7

Pos Bib No Name   O'All Place Cum Place Time Cum Time Time Back
1 498 Gracie Blake   10 10 9:51.6 9:51.6 1:03.2
2 500 Ashlyn Eakley   15 25 10:24.6 20:16.3 1:36.3
3 501 Lacey Larmand   16 41 10:25.4 30:41.8 1:37.0
4 497 Alexa Campbell   18 59 10:37.2 41:19.0 1:48.9
5 504 Lola Lynas   (20) (79) 10:56.7 52:15.7 2:08.3
6 503 Ivana Zhou   (29) (108) 11:27.9 1:03:43.7 2:39.5
7 499 Georgia Beausoleil   (31) (139) 11:29.0 1:15:12.7 2:40.6
8 502 Lauren Reid   (35) (174) 12:08.0 1:27:20.8 3:19.7
9 505 Gabby Laurin   (44) (218) 13:22.6 1:40:43.5 4:34.3
10 507 Kim Garness   (47) (265) 14:21.1 1:55:04.6 5:32.7

Team - Burkevale

Finish Position - 4

Team Score (places): 62

Team Score (times): 41:42.7

Ave Time:10:25.6

Pos Bib No Name   O'All Place Cum Place Time Cum Time Time Back
1 29 Tia Callas   2 2 9:21.2 9:21.2 0:32.8
2 30 Amelia Craftchicvk   3 5 9:28.1 18:49.4 0:39.8
3 32 Abigail Valenta   23 28 11:17.8 30:07.2 2:29.4
4 31 Kylie Ruston   34 62 11:35.5 41:42.7 2:47.1
5 28 Maisey Gignac   (40) (102) 12:55.8 54:38.6 4:07.5
6 27 Isabella Corkery   (49) (151) 14:26.4 1:09:05.0 5:38.0

Team - Saint-Louis

Finish Position - 5

Team Score (places): 105

Team Score (times): 46:45.5

Ave Time:11:41.3

Pos Bib No Name   O'All Place Cum Place Time Cum Time Time Back
1 689 Ellie Gauthier   4 4 9:28.4 9:28.4 0:40.0
2 690 Carli Irvine   13 17 10:18.2 19:46.7 1:29.8
3 686 Laura Brunelle   43 60 13:21.3 33:08.0 4:32.9
4 687 Bernadette Desroches   45 105 13:37.4 46:45.5 4:49.1

Team - Huron Park

Finish Position - 6

Team Score (places): 113

Team Score (times): 47:39.7

Ave Time:11:54.9

Pos Bib No Name   O'All Place Cum Place Time Cum Time Time Back
1 314 Isabella Brewer   7 7 9:40.3 9:40.3 0:51.9
2 317 Dorcina Knicely   17 24 10:33.9 20:14.2 1:45.5
3 312 Alexis Laramey   39 63 12:34.7 32:48.9 3:46.3
4 310 Mckenna Marsden   50 113 14:50.7 47:39.7 6:02.4
5 313 Maloreigh Curno   (51) (164) 14:59.4 1:02:39.1 6:11.1
6 311 Carlee Brock   (52) (216) 15:01.6 1:17:40.8 6:13.2
7 316 True Granger   (53) (269) 15:03.5 1:32:44.4 6:15.2
8 315 Jessica Crowe   (54) (323) 15:04.3 1:47:48.8 6:16.0
9 309 Samantha Desjarlais   (55) (378) 15:06.9 2:02:55.8 6:18.6

Final Team Results - Girls

Grade 7 Girls

Team - Mundy's Bay

Finish Position - 1

Team Score (places): 53

Team Score (times): 50:30.4

Ave Time:12:37.6

Pos Bib No Name   O'All Place Cum Place Time Cum Time Time Back
1 520 Hina MacMillan   3 3 11:25.3 11:25.3 0:26.2
2 516 Chloe Perry   7 10 11:49.9 23:15.2 0:50.9
3 521 Mahek Desai   21 31 13:32.6 36:47.9 2:33.6
4 519 Ellea Brinovec   22 53 13:42.4 50:30.4 2:43.4
5 526 Juliana Herrera   (33) (86) 14:27.4 1:04:57.8 3:28.3
6 517 Kylie Redgrift   (40) (126) 15:23.6 1:20:21.4 4:24.5
7 522 Jeswita Jeremiah   (43) (169) 15:49.0 1:36:10.5 4:49.9
8 515 Katie Leubecher-Robinson   (51) (220) 16:28.2 1:52:38.7 5:29.1
9 523 Annie Corrigan-Ross   (57) (277) 17:27.3 2:10:06.0 6:28.2

Team - Burkevale

Finish Position - 2

Team Score (places): 54

Team Score (times): 50:32.0

Ave Time:12:38.0

Pos Bib No Name   O'All Place Cum Place Time Cum Time Time Back
1 40 Ally Contois   5 5 11:35.3 11:35.3 0:36.3
2 38 Grace Baker   9 14 11:52.2 23:27.5 0:53.1
3 41 Juliana Lashbrook   14 28 12:54.2 36:21.7 1:55.1
4 42 Paige Zimmer   26 54 14:10.2 50:32.0 3:11.2
5 39 Trinity Campbell   (35) (89) 14:32.3 1:05:04.4 3:33.3

Team - Monsignor Castex

Finish Position - 3

Team Score (places): 58

Team Score (times): 51:38.9

Ave Time:12:54.7

Pos Bib No Name   O'All Place Cum Place Time Cum Time Time Back
1 178 Audrey Gignac   12 12 12:41.1 12:41.1 1:42.1
2 181 Jada Holsgrove   13 25 12:46.9 25:28.0 1:47.8
3 180 Alyssa Jacklin   16 41 13:01.4 38:29.5 2:02.4
4 183 Estella Barabaro   17 58 13:09.4 51:38.9 2:10.3
5 182 Ella Howard   (31) (89) 14:17.7 1:05:56.6 3:18.6
6 179 Alina Todd   (32) (121) 14:17.9 1:20:14.6 3:18.8
7 177 Paige Phillips   (44) (165) 15:49.7 1:36:04.3 4:50.6
8 176 Jenna Butler   (54) (219) 16:56.5 1:53:00.8 5:57.4

Team - Hillsdale

Finish Position - 4

Team Score (places): 72

Team Score (times): 52:51.2

Ave Time:13:12.8

Pos Bib No Name   O'All Place Cum Place Time Cum Time Time Back
1 756 Julia Koski   4 4 11:35.2 11:35.2 0:36.1
2 755 Mikaela Morrison   15 19 12:54.6 24:29.8 1:55.5
3 760 Samantha Connell   25 44 14:08.9 38:38.8 3:09.9
4 758 Lily Rankin   28 72 14:12.3 52:51.2 3:13.3
5 757 Kylie Brown   (42) (114) 15:42.4 1:08:33.6 4:43.4
6 761 Hannah Cook   (53) (167) 16:56.5 1:25:30.1 5:57.4
7 759 Caleigh Styles   (58) (225) 17:28.5 1:42:58.7 6:29.5

Team - Tay Shores

Finish Position - 5

Team Score (places): 113

Team Score (times): 56:32.4

Ave Time:14:08.1

Pos Bib No Name   O'All Place Cum Place Time Cum Time Time Back
1 819 Lauren Smith   6 6 11:44.8 11:44.8 0:45.8
2 815 Olivia Ferlito   19 25 13:26.3 25:11.2 2:27.3
3 814 Corra Baker   36 61 14:44.7 39:56.0 3:45.7
4 816 Brianna Craig   52 113 16:36.4 56:32.4 5:37.3

Team - Bayview PS

Finish Position - 6

Team Score (places): 131

Team Score (times): 58:46.5

Ave Time:14:41.6

Pos Bib No Name   O'All Place Cum Place Time Cum Time Time Back
1 272 Julzanne Gardner   20 20 13:29.3 13:29.3 2:30.3
2 274 Zoe Meridis   24 44 13:47.9 27:17.3 2:48.9
3 275 Olivia Pauze   39 83 15:22.3 42:39.7 4:23.3
4 271 Olivia Duell   48 131 16:06.7 58:46.5 5:07.7
5 270 Sylvana Deleon   (50) (181) 16:23.1 1:15:09.6 5:24.1

Team - Wyevale

Finish Position - 7

Team Score (places): 212

Team Score (times): 1:08:20.8

Ave Time:17:05.2

Pos Bib No Name   O'All Place Cum Place Time Cum Time Time Back
1 860 Mary Hackett   41 41 15:36.4 15:36.4 4:37.3
2 863 Naomi Hales   55 96 17:09.6 32:46.0 6:10.5
3 857 Aurora Desroches   56 152 17:23.9 50:09.9 6:24.9
4 862 Chyanne Fildey   60 212 18:10.8 1:08:20.8 7:11.7
5 856 Arianna Caston   (61) (273) 18:10.8 1:26:31.6 7:11.7
6 861 Anna Mullin   (62) (335) 19:29.6 1:46:01.2 8:30.5

Final Team Results - Girls

Grade 8 Girls

Team - Le Caron

Finish Position - 1

Team Score (places): 29

Team Score (times): 43:12.8

Ave Time:10:48.2

Pos Bib No Name   O'All Place Cum Place Time Cum Time Time Back
1 892 Sydney Lepage   2 2 10:01.6 10:01.6 0:06.5
2 893 Sierra McLaren   4 6 10:16.6 20:18.3 0:21.5
3 894 Hannah Kirdeikis   5 11 10:42.7 31:01.1 0:47.6
4 895 Jayneigh Hesler   18 29 12:11.7 43:12.8 2:16.6

Team - Saint-Louis

Finish Position - 2

Team Score (places): 73

Team Score (times): 50:18.4

Ave Time:12:34.6

Pos Bib No Name   O'All Place Cum Place Time Cum Time Time Back
1 711 Rowan Switzer   1 1 9:55.1 9:55.1 0:00.0
2 705 Alexandra Beeston   13 14 11:48.9 21:44.0 1:53.8
3 710 Madison Robillard   25 39 13:41.7 35:25.8 3:46.6
4 709 Colleen Lant   34 73 14:52.6 50:18.4 4:57.5
5 707 Adeline Desroches   (35) (108) 15:03.1 1:05:21.6 5:08.0
6 704 Kate Beatty   (46) (154) 15:54.4 1:21:16.0 5:59.3

Team - Mundy's Bay

Finish Position - 3

Team Score (places): 89

Team Score (times): 52:28.3

Ave Time:13:07.0

Pos Bib No Name   O'All Place Cum Place Time Cum Time Time Back
1 541 Devon Sponagle   9 9 11:03.0 11:03.0 1:07.9
2 544 Rachel Comeau-Balfort   21 30 13:14.1 24:17.1 3:19.0
3 543 Taylor Baumann   27 57 13:47.2 38:04.4 3:52.1
4 545 Kate Wang   32 89 14:23.9 52:28.3 4:28.7
5 542 Freja Townsend   (37) (126) 15:12.7 1:07:41.0 5:17.5
6 546 Chloe Eakley   (38) (164) 15:22.0 1:23:03.0 5:26.8
7 547 Taylor Wilson   (51) (215) 16:44.2 1:39:47.2 6:49.1
8 540 Brianna Warren   (54) (269) 16:58.8 1:56:46.1 7:03.7

Team - Burkevale

Finish Position - 4

Team Score (places): 90

Team Score (times): 52:15.2

Ave Time:13:03.8

Pos Bib No Name   O'All Place Cum Place Time Cum Time Time Back
1 50 Emma Campbell   12 12 11:39.8 11:39.8 1:44.7
2 52 Madelyn Ritchie   14 26 11:49.9 23:29.8 1:54.8
3 51 Sophie King   20 46 13:10.4 36:40.2 3:15.2
4 53 Chloe Couling   44 90 15:35.0 52:15.2 5:39.9

Team - St Antoine Daniel

Finish Position - 5

Team Score (places): 103

Team Score (times): 53:39.6

Ave Time:13:24.9

Pos Bib No Name   O'All Place Cum Place Time Cum Time Time Back
1 106 Marla Miron   10 10 11:19.5 11:19.5 1:24.3
2 107 Breckin Morrow   16 26 11:58.9 23:18.4 2:03.8
3 108 Shilo Fraser   24 50 13:28.9 36:47.3 3:33.7
4 109 Jenna Black   53 103 16:52.2 53:39.6 6:57.1

Team - Huron Park

Finish Position - 6

Team Score (places): 114

Team Score (times): 55:26.8

Ave Time:13:51.7

Pos Bib No Name   O'All Place Cum Place Time Cum Time Time Back
1 330 Rory Armstrong   7 7 10:53.1 10:53.1 0:57.9
2 332 Rayquel Rademaker   23 30 13:22.4 24:15.5 3:27.3
3 333 Leandra Kelly   39 69 15:24.9 39:40.5 5:29.8
4 331 Julie Clennett   45 114 15:46.3 55:26.8 5:51.1
5 335 Emma Fuller   (60) (174) 18:02.8 1:13:29.6 8:07.7

Team - Wyevale

Finish Position - 7

Team Score (places): 128

Team Score (times): 57:51.7

Ave Time:14:27.9

Pos Bib No Name   O'All Place Cum Place Time Cum Time Time Back
1 866 Allia Elson   28 28 14:03.3 14:03.3 4:08.2
2 865 Grace Cameron   29 57 14:09.1 28:12.5 4:14.0
3 868 Madleyn Atkinson   30 87 14:09.8 42:22.3 4:14.7
4 867 Emilie Garneau   41 128 15:29.4 57:51.7 5:34.3

Team - Canadian Martyrs

Finish Position - 8

Team Score (places): 152

Team Score (times): 1:00:56.5

Ave Time:15:14.1

Pos Bib No Name   O'All Place Cum Place Time Cum Time Time Back
1 652 Jazzmine Marion   33 33 14:51.6 14:51.6 4:56.5
2 655 Tessa Duquette   36 69 15:04.6 29:56.3 5:09.5
3 653 Peyton Cady   40 109 15:25.5 45:21.8 5:30.3
4 656 Rya Hartley   43 152 15:34.7 1:00:56.5 5:39.6
5 657 Kate Thorpe   (58) (210) 17:28.1 1:18:24.7 7:33.0
6 654 Nadia Lesperance   (61) (271) 21:19.7 1:39:44.5 11:24.6
7 650 Amelia Garraway   (62) (333) 22:52.6 2:02:37.1 12:57.5
8 651 Sophie Baker   (63) (396) 22:52.7 2:25:29.8 12:57.6

Team - Our Lady of Lourdes

Finish Position - 9

Team Score (places): 153

Team Score (times): 1:00:13.4

Ave Time:15:03.3

Pos Bib No Name   O'All Place Cum Place Time Cum Time Time Back
1 602 **jaden Lalonde   15 15 11:53.2 11:53.2 1:58.1
2 604 Gillian Sanzsole   31 46 14:21.7 26:15.0 4:26.6
3 603 Ava Melchiorre   48 94 16:25.5 42:40.5 6:30.3
4 601 Elsa Allen   59 153 17:32.9 1:00:13.4 7:37.8